Time;durP1;ratioP1;P1;durP2;ratioP2;P2;SDS_P1;SDS_P2;PMS_P1;PMS_P2;Temp;Humidity;BMP_temperature;BMP_pressure;BME280_temperature;BME280_humidity;BME280_pressure;Samples;Min_cycle;Max_cycle;Signal;HPM_P1;HPM_P2
2022/12/29 00:00:17;;;;;;;17.37;8.23;;;;;;;;;;5094674;28;20556;-58
2022/12/29 00:03:05;;;;;;;17.03;8.47;;;;;;;;;;5094668;28;20735;-60
2022/12/29 00:05:32;;;;;;;18.93;8.53;;;;;;;;;;5094940;28;20285;-58
2022/12/29 00:07:59;;;;;;;90.83;38.07;;;;;;;;;;5094590;28;20655;-58
2022/12/29 00:10:26;;;;;;;31.87;14.63;;;;;;;;;;5094723;28;20256;-59
2022/12/29 00:15:39;;;;;;;21.57;9.23;;;;;;;;;;5094572;28;20207;-59
2022/12/29 00:18:07;;;;;;;22.07;9.27;;;;;;;;;;5094584;28;20226;-59
2022/12/29 00:44:04;;;;;;;18.67;8.47;;;;;;;;;;5093676;28;20195;-59
2022/12/29 00:45:41;;;;;;;15.67;8.23;;;;;;;;;;5094073;28;20183;-59
2022/12/29 00:48:08;;;;;;;16.80;8.00;;;;;;;;;;5093349;28;20213;-60
2022/12/29 00:50:35;;;;;;;30.87;14.23;;;;;;;;;;5094100;28;20639;-60
2022/12/29 00:53:02;;;;;;;16.90;8.23;;;;;;;;;;5094232;28;20210;-58
2022/12/29 00:55:29;;;;;;;18.33;8.30;;;;;;;;;;5094249;28;20194;-59
2022/12/29 00:57:56;;;;;;;14.80;7.43;;;;;;;;;;5094117;28;20230;-59
2022/12/29 01:00:24;;;;;;;16.87;7.53;;;;;;;;;;5093920;28;20214;-59
2022/12/29 01:02:51;;;;;;;15.90;7.33;;;;;;;;;;5094233;28;20202;-59
2022/12/29 01:05:18;;;;;;;17.83;7.73;;;;;;;;;;5093870;28;20229;-59
2022/12/29 01:07:45;;;;;;;37.67;18.10;;;;;;;;;;5093201;28;20214;-60
2022/12/29 01:10:14;;;;;;;28.23;13.23;;;;;;;;;;5094045;28;20206;-59
2022/12/29 01:12:41;;;;;;;17.60;8.13;;;;;;;;;;5094128;28;20199;-59
2022/12/29 01:15:12;;;;;;;13.60;7.10;;;;;;;;;;5093957;28;20648;-59
2022/12/29 01:17:41;;;;;;;16.17;7.37;;;;;;;;;;5093723;28;20233;-61
2022/12/29 01:20:09;;;;;;;16.07;7.83;;;;;;;;;;5093939;28;20207;-60
2022/12/29 01:22:36;;;;;;;13.93;6.83;;;;;;;;;;5092805;28;20234;-59
2022/12/29 01:25:04;;;;;;;13.07;6.93;;;;;;;;;;5093873;28;20203;-60
2022/12/29 01:27:33;;;;;;;15.97;6.83;;;;;;;;;;5092929;28;20619;-59
2022/12/29 01:30:00;;;;;;;26.00;11.67;;;;;;;;;;5093655;28;20655;-60
2022/12/29 01:32:27;;;;;;;20.73;8.67;;;;;;;;;;5093637;28;20263;-59
2022/12/29 01:34:55;;;;;;;14.23;7.47;;;;;;;;;;5093015;28;20213;-61
2022/12/29 01:37:22;;;;;;;15.20;7.20;;;;;;;;;;5093894;28;20199;-59
2022/12/29 01:39:49;;;;;;;14.57;7.00;;;;;;;;;;5094286;28;20571;-59
2022/12/29 01:42:18;;;;;;;13.87;6.70;;;;;;;;;;5097719;28;20206;-59
2022/12/29 01:44:55;;;;;;;94.03;41.70;;;;;;;;;;5097300;28;20199;-60
2022/12/29 01:47:31;;;;;;;21.87;10.40;;;;;;;;;;5096703;28;20194;-60
2022/12/29 01:50:03;;;;;;;22.83;10.10;;;;;;;;;;5097449;28;20218;-60
2022/12/29 01:52:32;;;;;;;19.57;8.67;;;;;;;;;;5097295;28;20268;-60
2022/12/29 01:55:02;;;;;;;20.60;8.93;;;;;;;;;;5080076;28;20211;-60
2022/12/29 01:57:33;;;;;;;13.87;7.87;;;;;;;;;;5096911;28;20240;-60
2022/12/29 02:00:12;;;;;;;14.43;7.53;;;;;;;;;;5063505;28;20219;-59
2022/12/29 02:02:45;;;;;;;14.97;6.27;;;;;;;;;;5096545;28;20213;-61
2022/12/29 02:05:41;;;;;;;15.80;7.60;;;;;;;;;;5096484;28;20191;-60
2022/12/29 02:08:12;;;;;;;13.87;7.40;;;;;;;;;;5093387;28;20195;-59
2022/12/29 02:10:40;;;;;;;16.90;7.83;;;;;;;;;;5096893;28;20207;-62
2022/12/29 02:13:07;;;;;;;15.43;7.23;;;;;;;;;;5097121;28;20198;-59
2022/12/29 02:15:35;;;;;;;17.80;7.30;;;;;;;;;;5096768;28;20229;-62
2022/12/29 02:18:02;;;;;;;13.43;7.07;;;;;;;;;;5096045;28;20289;-60
2022/12/29 02:21:06;;;;;;;13.33;7.33;;;;;;;;;;5096079;28;20275;-59
2022/12/29 02:24:19;;;;;;;15.43;7.13;;;;;;;;;;5095847;28;20261;-59
2022/12/29 02:26:50;;;;;;;26.37;11.70;;;;;;;;;;5021875;28;20609;-59
2022/12/29 02:29:55;;;;;;;18.57;10.37;;;;;;;;;;5092571;28;20643;-59
2022/12/29 02:32:45;;;;;;;18.57;8.23;;;;;;;;;;5096388;28;20203;-60
2022/12/29 02:35:30;;;;;;;18.57;7.33;;;;;;;;;;5090389;28;20272;-60
2022/12/29 02:38:24;;;;;;;12.93;7.60;;;;;;;;;;5079174;28;20199;-61
2022/12/29 02:40:54;;;;;;;11.73;6.67;;;;;;;;;;5096384;28;20214;-60
2022/12/29 02:43:52;;;;;;;18.10;7.90;;;;;;;;;;5096517;28;20207;-60
2022/12/29 02:46:27;;;;;;;16.27;6.83;;;;;;;;;;5021130;28;20207;-60
2022/12/29 02:49:06;;;;;;;18.20;9.10;;;;;;;;;;5021457;28;20208;-61
2022/12/29 02:51:40;;;;;;;16.37;8.50;;;;;;;;;;5036492;28;20277;-60
2022/12/29 02:56:53;;;;;;;20.03;8.40;;;;;;;;;;5054212;28;20208;-60
2022/12/29 02:59:21;;;;;;;15.47;7.80;;;;;;;;;;5037560;28;20323;-60
2022/12/29 03:02:40;;;;;;;18.40;8.40;;;;;;;;;;5053950;28;20301;-61
2022/12/29 03:05:23;;;;;;;16.30;7.33;;;;;;;;;;5002239;28;20264;-60
2022/12/29 03:08:04;;;;;;;10.87;7.07;;;;;;;;;;5037477;28;20673;-61
2022/12/29 03:10:37;;;;;;;94.90;41.10;;;;;;;;;;5037240;28;20212;-60
2022/12/29 03:16:29;;;;;;;13.40;7.47;;;;;;;;;;5011277;28;20212;-60
2022/12/29 03:19:22;;;;;;;17.67;8.77;;;;;;;;;;5053613;28;20315;-60
2022/12/29 03:24:46;;;;;;;18.53;8.40;;;;;;;;;;5081313;28;20213;-59
2022/12/29 03:27:20;;;;;;;15.97;8.80;;;;;;;;;;5078376;28;20179;-59
2022/12/29 03:29:55;;;;;;;13.53;7.87;;;;;;;;;;5078374;28;20224;-61
2022/12/29 03:32:26;;;;;;;16.87;9.63;;;;;;;;;;5094561;28;20205;-60
2022/12/29 03:34:54;;;;;;;19.90;9.27;;;;;;;;;;5094453;28;20321;-60
2022/12/29 03:37:25;;;;;;;24.13;9.13;;;;;;;;;;5094300;28;20256;-62
2022/12/29 03:39:52;;;;;;;16.00;7.97;;;;;;;;;;5077836;28;20230;-60
2022/12/29 03:42:22;;;;;;;16.07;8.13;;;;;;;;;;5094197;28;20925;-59
2022/12/29 03:44:53;;;;;;;12.57;7.70;;;;;;;;;;5094471;28;20187;-60
2022/12/29 03:47:21;;;;;;;12.90;7.47;;;;;;;;;;5094528;28;20191;-60
2022/12/29 03:49:48;;;;;;;14.23;8.17;;;;;;;;;;5094368;28;20207;-62
2022/12/29 03:52:17;;;;;;;21.03;9.60;;;;;;;;;;5095248;28;20195;-60
2022/12/29 03:54:46;;;;;;;17.53;8.30;;;;;;;;;;5094375;28;20524;-60
2022/12/29 03:57:13;;;;;;;17.17;9.07;;;;;;;;;;5094166;28;20206;-59
2022/12/29 04:00:10;;;;;;;36.03;18.73;;;;;;;;;;5072541;28;20235;-60
2022/12/29 04:02:49;;;;;;;18.53;9.30;;;;;;;;;;5072639;28;20199;-60
2022/12/29 04:05:20;;;;;;;16.50;7.73;;;;;;;;;;5057733;28;20273;-61
2022/12/29 04:07:50;;;;;;;14.93;7.83;;;;;;;;;;5036725;28;20212;-61
2022/12/29 04:10:17;;;;;;;16.33;7.73;;;;;;;;;;5052843;28;20625;-60
2022/12/29 04:12:47;;;;;;;16.17;8.37;;;;;;;;;;5036057;28;20200;-60
2022/12/29 04:15:15;;;;;;;13.87;7.43;;;;;;;;;;5052750;28;20236;-61
2022/12/29 04:17:44;;;;;;;14.80;8.17;;;;;;;;;;5035945;28;20238;-59
2022/12/29 04:23:01;;;;;;;17.73;8.50;;;;;;;;;;5052374;28;20228;-60
2022/12/29 04:25:28;;;;;;;22.43;8.97;;;;;;;;;;5052379;28;20630;-60
2022/12/29 04:27:56;;;;;;;13.90;7.90;;;;;;;;;;5052384;28;20548;-60
2022/12/29 04:30:43;;;;;;;13.57;7.13;;;;;;;;;;5052569;28;20553;-60
2022/12/29 04:33:33;;;;;;;13.00;7.60;;;;;;;;;;5052305;28;20266;-60
2022/12/29 04:36:01;;;;;;;15.47;8.30;;;;;;;;;;5042911;28;20282;-59
2022/12/29 04:38:28;;;;;;;16.87;8.27;;;;;;;;;;5073117;28;20651;-59
2022/12/29 04:40:59;;;;;;;34.00;15.60;;;;;;;;;;5106994;28;20252;-61
2022/12/29 04:43:27;;;;;;;24.53;10.20;;;;;;;;;;5106853;28;20218;-60
2022/12/29 04:46:17;;;;;;;17.70;8.23;;;;;;;;;;5064641;28;20207;-60
2022/12/29 04:48:52;;;;;;;14.87;7.30;;;;;;;;;;5073389;28;20199;-59
2022/12/29 04:51:29;;;;;;;13.07;8.03;;;;;;;;;;5078975;28;20213;-59
2022/12/29 04:53:57;;;;;;;14.67;7.43;;;;;;;;;;5085333;28;20631;-61
2022/12/29 04:56:25;;;;;;;19.27;8.20;;;;;;;;;;5083810;28;20344;-61
2022/12/29 04:58:52;;;;;;;162.67;66.77;;;;;;;;;;5083040;28;20252;-60
2022/12/29 05:01:20;;;;;;;34.53;16.40;;;;;;;;;;5083819;28;20211;-61
2022/12/29 05:03:50;;;;;;;19.77;10.37;;;;;;;;;;5079789;28;20256;-61
2022/12/29 05:06:18;;;;;;;19.90;10.17;;;;;;;;;;5084600;28;20686;-60
2022/12/29 05:08:45;;;;;;;11.77;7.70;;;;;;;;;;5082926;28;20219;-60
2022/12/29 05:11:12;;;;;;;14.30;7.90;;;;;;;;;;5077078;28;20284;-59
2022/12/29 05:13:40;;;;;;;39.60;23.20;;;;;;;;;;5092263;28;20214;-62
2022/12/29 05:16:08;;;;;;;181.80;84.80;;;;;;;;;;5096041;28;20233;-61
2022/12/29 05:18:35;;;;;;;63.53;29.17;;;;;;;;;;5096218;28;20226;-60
2022/12/29 05:21:03;;;;;;;30.43;15.87;;;;;;;;;;5095650;28;20261;-59
2022/12/29 05:23:30;;;;;;;63.27;29.73;;;;;;;;;;5097524;28;20250;-61
2022/12/29 05:26:04;;;;;;;19.43;10.23;;;;;;;;;;5095977;28;20226;-59
2022/12/29 05:28:49;;;;;;;33.03;17.47;;;;;;;;;;5096134;28;20313;-60
2022/12/29 05:31:19;;;;;;;30.97;19.30;;;;;;;;;;5096084;28;20238;-59
2022/12/29 05:33:47;;;;;;;15.93;8.93;;;;;;;;;;5095684;28;20713;-60
2022/12/29 05:36:15;;;;;;;17.50;8.53;;;;;;;;;;5095527;28;20675;-61
2022/12/29 05:38:46;;;;;;;15.77;8.17;;;;;;;;;;5096132;28;20275;-60
2022/12/29 05:41:14;;;;;;;12.90;6.90;;;;;;;;;;5095662;28;20287;-59
2022/12/29 05:44:00;;;;;;;11.93;6.97;;;;;;;;;;5096762;28;20230;-60
2022/12/29 05:46:45;;;;;;;11.37;6.43;;;;;;;;;;5096165;28;20230;-61
2022/12/29 05:49:20;;;;;;;12.13;7.07;;;;;;;;;;5095412;28;20238;-61
2022/12/29 05:52:08;;;;;;;12.97;8.13;;;;;;;;;;5096012;28;20639;-60
2022/12/29 05:54:36;;;;;;;17.07;7.63;;;;;;;;;;5095247;28;20526;-61
2022/12/29 05:57:09;;;;;;;17.20;7.13;;;;;;;;;;5096273;28;20658;-59
2022/12/29 05:59:38;;;;;;;12.03;7.47;;;;;;;;;;5096218;28;20237;-60
2022/12/29 06:02:05;;;;;;;50.03;31.13;;;;;;;;;;5096452;28;20221;-58
2022/12/29 06:04:33;;;;;;;22.67;15.50;;;;;;;;;;5096163;28;20214;-59
2022/12/29 06:07:01;;;;;;;18.80;9.80;;;;;;;;;;5096155;28;20210;-60
2022/12/29 06:09:54;;;;;;;15.50;8.43;;;;;;;;;;5095843;28;20226;-60
2022/12/29 06:12:22;;;;;;;14.03;7.40;;;;;;;;;;5096309;28;20206;-60
2022/12/29 06:14:52;;;;;;;23.83;9.00;;;;;;;;;;5095835;28;20236;-59
2022/12/29 06:17:19;;;;;;;22.83;10.20;;;;;;;;;;5096713;28;20207;-60
2022/12/29 06:19:48;;;;;;;40.63;13.97;;;;;;;;;;5095812;28;20643;-60
2022/12/29 06:22:17;;;;;;;29.27;10.90;;;;;;;;;;5095681;28;20798;-59
2022/12/29 06:24:45;;;;;;;70.60;40.03;;;;;;;;;;5096016;28;20201;-59
2022/12/29 06:27:13;;;;;;;43.93;28.23;;;;;;;;;;5095863;28;20207;-60
2022/12/29 06:29:40;;;;;;;166.53;44.63;;;;;;;;;;5095621;28;20588;-60
2022/12/29 06:32:09;;;;;;;37.77;14.83;;;;;;;;;;5095813;28;20202;-60
2022/12/29 06:34:42;;;;;;;44.97;16.87;;;;;;;;;;5095366;28;20222;-60
2022/12/29 06:37:09;;;;;;;31.10;16.93;;;;;;;;;;5095875;28;20206;-60
2022/12/29 06:39:36;;;;;;;36.60;16.93;;;;;;;;;;5096298;28;20718;-59
2022/12/29 06:42:09;;;;;;;37.40;16.13;;;;;;;;;;5095326;28;20689;-59
2022/12/29 06:45:08;;;;;;;130.00;81.97;;;;;;;;;;5053960;28;20595;-60
2022/12/29 06:47:36;;;;;;;173.37;46.47;;;;;;;;;;5053990;28;20208;-60
2022/12/29 06:50:03;;;;;;;49.27;18.23;;;;;;;;;;5053929;28;20208;-60
2022/12/29 06:52:30;;;;;;;30.17;12.87;;;;;;;;;;5053945;28;20515;-62
2022/12/29 06:54:57;;;;;;;21.83;11.07;;;;;;;;;;5053854;28;20204;-59
2022/12/29 06:57:26;;;;;;;28.07;13.83;;;;;;;;;;5053911;28;20196;-60
2022/12/29 06:59:55;;;;;;;38.07;15.20;;;;;;;;;;5053741;28;20224;-60
2022/12/29 07:02:24;;;;;;;47.17;17.67;;;;;;;;;;5053719;28;20630;-60
2022/12/29 07:04:52;;;;;;;24.00;11.53;;;;;;;;;;5043318;28;20224;-61
2022/12/29 07:07:20;;;;;;;28.57;15.70;;;;;;;;;;5044428;28;21065;-60
2022/12/29 07:09:47;;;;;;;81.17;50.00;;;;;;;;;;5052469;28;20224;-61
2022/12/29 07:12:15;;;;;;;66.80;21.40;;;;;;;;;;5052692;28;20542;-61
2022/12/29 07:14:43;;;;;;;49.57;20.13;;;;;;;;;;5052627;28;20228;-60
2022/12/29 07:17:10;;;;;;;28.70;12.53;;;;;;;;;;5051527;28;20227;-60
2022/12/29 07:19:37;;;;;;;23.40;11.43;;;;;;;;;;5053165;28;20656;-61
2022/12/29 07:22:04;;;;;;;29.17;12.60;;;;;;;;;;5094840;28;20666;-61
2022/12/29 07:24:31;;;;;;;27.63;11.83;;;;;;;;;;5094740;28;20241;-59
2022/12/29 07:26:59;;;;;;;27.33;13.03;;;;;;;;;;5094722;28;20219;-60
2022/12/29 07:29:25;;;;;;;30.83;11.10;;;;;;;;;;5094542;28;20222;-60
2022/12/29 07:31:53;;;;;;;31.00;17.47;;;;;;;;;;5093092;28;20301;-60
2022/12/29 07:34:20;;;;;;;50.13;21.27;;;;;;;;;;5092636;28;20241;-62
2022/12/29 07:36:47;;;;;;;121.67;24.13;;;;;;;;;;5094008;28;20683;-60
2022/12/29 07:39:14;;;;;;;77.87;22.03;;;;;;;;;;5092649;28;20678;-60
2022/12/29 07:41:41;;;;;;;31.60;13.90;;;;;;;;;;5094209;27;20232;-59
2022/12/29 07:44:15;;;;;;;22.57;10.63;;;;;;;;;;5093307;28;20215;-61
2022/12/29 07:46:52;;;;;;;170.10;78.37;;;;;;;;;;5094324;28;20222;-62
2022/12/29 07:49:23;;;;;;;32.07;15.03;;;;;;;;;;5093661;28;20222;-61
2022/12/29 07:51:51;;;;;;;31.23;12.87;;;;;;;;;;5093997;28;20679;-60
2022/12/29 07:54:18;;;;;;;26.87;12.13;;;;;;;;;;5093578;28;20279;-62
2022/12/29 07:56:45;;;;;;;25.57;10.90;;;;;;;;;;5094313;28;20233;-58
2022/12/29 07:59:13;;;;;;;14.00;8.03;;;;;;;;;;5093937;28;20227;-60
2022/12/29 08:01:40;;;;;;;14.20;8.20;;;;;;;;;;5094033;28;20241;-60
2022/12/29 08:04:07;;;;;;;26.37;12.07;;;;;;;;;;5093366;28;20218;-62
2022/12/29 08:06:35;;;;;;;13.00;8.57;;;;;;;;;;5094059;28;20222;-60
2022/12/29 08:09:02;;;;;;;26.33;21.17;;;;;;;;;;5094123;28;20279;-60
2022/12/29 08:11:41;;;;;;;70.40;18.83;;;;;;;;;;5094018;28;20563;-61
2022/12/29 08:14:08;;;;;;;36.77;13.77;;;;;;;;;;5092558;28;20675;-60
2022/12/29 08:16:35;;;;;;;23.27;10.20;;;;;;;;;;5093544;28;20242;-59
2022/12/29 08:19:03;;;;;;;20.07;8.23;;;;;;;;;;5093070;28;20226;-60
2022/12/29 08:21:31;;;;;;;29.03;15.60;;;;;;;;;;5093287;28;20226;-59
2022/12/29 08:23:58;;;;;;;87.83;45.77;;;;;;;;;;5093710;28;20239;-62
2022/12/29 08:26:26;;;;;;;18.03;9.67;;;;;;;;;;5093385;28;20223;-63
2022/12/29 08:28:54;;;;;;;25.43;9.73;;;;;;;;;;5093602;28;20238;-61
2022/12/29 08:31:22;;;;;;;15.83;7.37;;;;;;;;;;5093457;28;20270;-60
2022/12/29 08:33:49;;;;;;;11.37;6.33;;;;;;;;;;5092763;28;20235;-59
2022/12/29 08:36:17;;;;;;;12.50;5.90;;;;;;;;;;5092425;28;20241;-60
2022/12/29 08:38:44;;;;;;;10.00;5.47;;;;;;;;;;5093427;28;20256;-60
2022/12/29 08:41:11;;;;;;;13.70;6.70;;;;;;;;;;5093435;28;20749;-61
2022/12/29 08:43:38;;;;;;;7.93;5.17;;;;;;;;;;5094016;28;20640;-63
2022/12/29 08:46:06;;;;;;;13.17;7.33;;;;;;;;;;5094146;28;20277;-61
2022/12/29 08:48:33;;;;;;;10.40;5.73;;;;;;;;;;5092943;28;20214;-59
2022/12/29 08:51:00;;;;;;;22.00;8.17;;;;;;;;;;5092715;28;20206;-59
2022/12/29 08:53:27;;;;;;;18.00;6.17;;;;;;;;;;5093717;28;20218;-60
2022/12/29 08:55:57;;;;;;;13.83;5.90;;;;;;;;;;5094360;28;20256;-59
2022/12/29 08:58:35;;;;;;;57.67;22.57;;;;;;;;;;5093293;28;20194;-60
2022/12/29 09:01:03;;;;;;;13.37;9.10;;;;;;;;;;5093029;28;20226;-60
2022/12/29 09:03:30;;;;;;;11.30;5.70;;;;;;;;;;5076112;28;20209;-62
2022/12/29 09:06:17;;;;;;;18.83;7.97;;;;;;;;;;5093904;28;20191;-60
2022/12/29 09:08:44;;;;;;;13.43;5.83;;;;;;;;;;5093538;28;20545;-60
2022/12/29 09:11:23;;;;;;;10.83;5.20;;;;;;;;;;5093491;28;20202;-60
2022/12/29 09:13:51;;;;;;;10.53;5.10;;;;;;;;;;5092904;28;20629;-60
2022/12/29 09:16:20;;;;;;;9.33;4.93;;;;;;;;;;5093817;28;20194;-60
2022/12/29 09:18:47;;;;;;;10.87;4.83;;;;;;;;;;5093610;28;20293;-60
2022/12/29 09:21:14;;;;;;;15.87;8.03;;;;;;;;;;5093743;28;20223;-60
2022/12/29 09:23:41;;;;;;;12.67;6.00;;;;;;;;;;5093673;28;20713;-59
2022/12/29 09:26:09;;;;;;;14.60;6.70;;;;;;;;;;5093778;28;20198;-60
2022/12/29 09:28:36;;;;;;;13.30;6.20;;;;;;;;;;5093658;28;20241;-60
2022/12/29 09:31:04;;;;;;;11.60;5.67;;;;;;;;;;5093287;28;20202;-60
2022/12/29 09:33:33;;;;;;;10.40;5.20;;;;;;;;;;5093359;28;20264;-60
2022/12/29 09:36:00;;;;;;;12.17;5.70;;;;;;;;;;5092605;28;20858;-61
2022/12/29 09:38:28;;;;;;;19.43;7.53;;;;;;;;;;5093424;28;20511;-60
2022/12/29 09:41:01;;;;;;;39.13;20.27;;;;;;;;;;5092705;28;20233;-61
2022/12/29 09:43:49;;;;;;;8.37;5.00;;;;;;;;;;5092209;28;20195;-60
2022/12/29 09:46:25;;;;;;;15.27;5.90;;;;;;;;;;5091726;28;20187;-61
2022/12/29 09:49:12;;;;;;;13.60;5.80;;;;;;;;;;5092153;28;20528;-63
2022/12/29 09:51:39;;;;;;;9.83;5.53;;;;;;;;;;5090889;28;20623;-61
2022/12/29 09:54:37;;;;;;;19.87;8.00;;;;;;;;;;5090919;28;20252;-60
2022/12/29 09:57:10;;;;;;;17.37;7.90;;;;;;;;;;5091549;28;20191;-62
2022/12/29 09:59:42;;;;;;;14.63;6.20;;;;;;;;;;5092681;28;20179;-60
2022/12/29 10:02:16;;;;;;;30.53;11.67;;;;;;;;;;5096006;28;20230;-60
2022/12/29 10:04:43;;;;;;;27.40;8.70;;;;;;;;;;5096876;28;20195;-60
2022/12/29 10:07:23;;;;;;;14.20;8.10;;;;;;;;;;5096883;28;20766;-61
2022/12/29 10:09:57;;;;;;;22.03;7.13;;;;;;;;;;5095800;28;20201;-61
2022/12/29 10:12:27;;;;;;;13.83;6.43;;;;;;;;;;5096689;28;20636;-62
2022/12/29 10:15:41;;;;;;;11.17;5.27;;;;;;;;;;5096541;28;20198;-61
2022/12/29 10:18:27;;;;;;;15.70;5.53;;;;;;;;;;5073795;28;20585;-62
2022/12/29 10:21:07;;;;;;;40.10;18.27;;;;;;;;;;5074408;28;20545;-61
2022/12/29 10:23:41;;;;;;;28.63;15.07;;;;;;;;;;5085834;28;20231;-63
2022/12/29 10:26:14;;;;;;;14.37;6.57;;;;;;;;;;5096695;28;20273;-62
2022/12/29 10:28:49;;;;;;;21.37;7.30;;;;;;;;;;5095994;28;20183;-61
2022/12/29 10:31:22;;;;;;;25.90;10.23;;;;;;;;;;5096242;28;20201;-61
2022/12/29 10:33:55;;;;;;;74.60;42.33;;;;;;;;;;5095517;28;20588;-61
2022/12/29 10:36:33;;;;;;;106.57;48.97;;;;;;;;;;5095986;28;20187;-61
2022/12/29 10:39:34;;;;;;;202.10;78.10;;;;;;;;;;5096192;28;20187;-60
2022/12/29 10:42:11;;;;;;;188.53;67.67;;;;;;;;;;5053900;28;20245;-60
2022/12/29 10:44:39;;;;;;;204.10;72.10;;;;;;;;;;5054151;28;20265;-60
2022/12/29 10:47:12;;;;;;;218.23;89.90;;;;;;;;;;5037513;28;20250;-60
2022/12/29 10:49:42;;;;;;;106.43;53.27;;;;;;;;;;5021682;28;20269;-60
2022/12/29 10:52:10;;;;;;;121.27;57.17;;;;;;;;;;5054105;28;20606;-60
2022/12/29 10:55:00;;;;;;;67.77;36.17;;;;;;;;;;5054089;28;20200;-61
2022/12/29 10:57:32;;;;;;;101.73;53.73;;;;;;;;;;5054079;28;20657;-59
2022/12/29 11:00:00;;;;;;;188.37;99.83;;;;;;;;;;5048222;28;20575;-63
2022/12/29 11:02:43;;;;;;;176.43;92.60;;;;;;;;;;5053147;28;20694;-60
2022/12/29 11:05:23;;;;;;;42.43;26.30;;;;;;;;;;5052701;28;20664;-61
2022/12/29 11:07:51;;;;;;;19.67;12.13;;;;;;;;;;5052913;28;20254;-62
2022/12/29 11:10:20;;;;;;;19.07;12.23;;;;;;;;;;5052684;28;20704;-60
2022/12/29 11:12:56;;;;;;;19.53;10.13;;;;;;;;;;5052054;28;20231;-61
2022/12/29 11:15:24;;;;;;;11.83;7.10;;;;;;;;;;5052241;28;20228;-60
2022/12/29 11:17:53;;;;;;;15.63;7.63;;;;;;;;;;5061496;28;20305;-62
2022/12/29 11:20:33;;;;;;;17.13;7.30;;;;;;;;;;5093287;28;20663;-62
2022/12/29 11:23:01;;;;;;;16.43;8.13;;;;;;;;;;5094718;28;20242;-61
2022/12/29 11:25:29;;;;;;;15.90;6.70;;;;;;;;;;5094213;28;20230;-61
2022/12/29 11:28:14;;;;;;;18.03;7.83;;;;;;;;;;5093846;28;20223;-62
2022/12/29 11:30:42;;;;;;;16.57;6.80;;;;;;;;;;5094050;28;20222;-62
2022/12/29 11:33:09;;;;;;;27.57;14.53;;;;;;;;;;5092984;28;20253;-64
2022/12/29 11:35:42;;;;;;;24.33;13.20;;;;;;;;;;5094560;28;20667;-60
2022/12/29 11:38:24;;;;;;;17.60;8.40;;;;;;;;;;5094582;28;20279;-64
2022/12/29 11:40:51;;;;;;;13.87;8.30;;;;;;;;;;5092636;28;20221;-60
2022/12/29 11:43:25;;;;;;;16.30;8.37;;;;;;;;;;5092193;28;20279;-62
2022/12/29 11:45:53;;;;;;;9.67;5.80;;;;;;;;;;5090469;28;20230;-64
2022/12/29 11:48:21;;;;;;;12.43;6.57;;;;;;;;;;5091815;28;20283;-61
2022/12/29 11:50:53;;;;;;;12.57;5.60;;;;;;;;;;5093300;28;20687;-64
2022/12/29 11:53:26;;;;;;;15.07;6.23;;;;;;;;;;5092855;28;20284;-60
2022/12/29 11:56:07;;;;;;;17.10;9.90;;;;;;;;;;5092881;28;20223;-61
2022/12/29 11:58:36;;;;;;;11.30;5.60;;;;;;;;;;5094212;28;20229;-59
2022/12/29 12:01:12;;;;;;;20.27;8.47;;;;;;;;;;5092635;28;20571;-58
2022/12/29 12:03:44;;;;;;;16.03;7.50;;;;;;;;;;5093528;28;20288;-60
2022/12/29 12:06:16;;;;;;;14.17;7.27;;;;;;;;;;5077513;28;20627;-59
2022/12/29 12:08:52;;;;;;;17.93;9.70;;;;;;;;;;5094123;28;20202;-59
2022/12/29 12:11:27;;;;;;;30.33;15.03;;;;;;;;;;5094903;28;20285;-60
2022/12/29 12:14:04;;;;;;;14.90;7.93;;;;;;;;;;5093867;28;20190;-59
2022/12/29 12:17:10;;;;;;;20.77;8.27;;;;;;;;;;5093861;28;20199;-58
2022/12/29 12:19:46;;;;;;;16.17;6.50;;;;;;;;;;5093848;28;20263;-60
2022/12/29 12:22:21;;;;;;;12.30;6.43;;;;;;;;;;5093646;28;20298;-59
2022/12/29 12:24:53;;;;;;;11.40;5.93;;;;;;;;;;5094420;28;20205;-61
2022/12/29 12:27:49;;;;;;;11.57;5.87;;;;;;;;;;5089963;28;20205;-59
2022/12/29 12:30:23;;;;;;;12.50;6.33;;;;;;;;;;5093458;28;20197;-61
2022/12/29 12:33:02;;;;;;;13.47;7.50;;;;;;;;;;5094973;28;20186;-60
2022/12/29 12:36:07;;;;;;;16.57;7.33;;;;;;;;;;5094635;28;20197;-60
2022/12/29 12:38:54;;;;;;;17.20;6.83;;;;;;;;;;5094432;28;20210;-59
2022/12/29 12:41:21;;;;;;;16.97;7.10;;;;;;;;;;5094155;28;20217;-60
2022/12/29 12:44:00;;;;;;;14.93;6.23;;;;;;;;;;5094220;28;20203;-62
2022/12/29 12:46:39;;;;;;;81.63;38.33;;;;;;;;;;5093902;28;20224;-60
2022/12/29 12:49:19;;;;;;;27.97;12.33;;;;;;;;;;5094218;28;20195;-60
2022/12/29 12:51:49;;;;;;;14.83;6.70;;;;;;;;;;5092664;28;20202;-60
2022/12/29 12:54:41;;;;;;;11.93;6.20;;;;;;;;;;5094098;28;20205;-60
2022/12/29 12:57:51;;;;;;;9.80;5.53;;;;;;;;;;5093941;28;20205;-61
2022/12/29 13:00:20;;;;;;;16.53;9.67;;;;;;;;;;5074315;28;20195;-60
2022/12/29 13:03:03;;;;;;;14.60;6.07;;;;;;;;;;5093180;28;20231;-60
2022/12/29 13:05:37;;;;;;;13.23;5.97;;;;;;;;;;5093243;28;20198;-60
2022/12/29 13:08:37;;;;;;;31.07;14.00;;;;;;;;;;5093686;28;20244;-59
2022/12/29 13:11:11;;;;;;;33.27;15.70;;;;;;;;;;5093803;28;20214;-62
2022/12/29 13:13:47;;;;;;;47.37;20.53;;;;;;;;;;5094070;28;20216;-63
2022/12/29 13:16:41;;;;;;;21.77;11.00;;;;;;;;;;5094145;28;20186;-60
2022/12/29 13:19:53;;;;;;;50.40;23.07;;;;;;;;;;5092676;28;20187;-60
2022/12/29 13:23:02;;;;;;;41.17;22.53;;;;;;;;;;5034741;28;20248;-59
2022/12/29 13:25:54;;;;;;;25.67;16.13;;;;;;;;;;4992030;28;20198;-67
2022/12/29 13:28:29;;;;;;;44.20;22.40;;;;;;;;;;5049810;28;20211;-59
2022/12/29 13:31:01;;;;;;;23.20;14.50;;;;;;;;;;5051249;28;20249;-60
2022/12/29 13:33:51;;;;;;;24.30;14.37;;;;;;;;;;5048079;28;20243;-61
2022/12/29 13:36:18;;;;;;;24.90;13.53;;;;;;;;;;5052695;28;20223;-63
2022/12/29 13:38:49;;;;;;;23.87;13.13;;;;;;;;;;5054076;28;20250;-61
2022/12/29 13:41:27;;;;;;;12.93;6.90;;;;;;;;;;5054213;28;20231;-60
2022/12/29 13:43:55;;;;;;;14.43;7.30;;;;;;;;;;5034204;28;20236;-62
2022/12/29 13:46:26;;;;;;;14.40;6.53;;;;;;;;;;5053116;28;20612;-60
2022/12/29 13:48:57;;;;;;;19.20;8.33;;;;;;;;;;5053271;28;20224;-60
2022/12/29 13:51:25;;;;;;;10.43;6.00;;;;;;;;;;5052896;28;20251;-59
2022/12/29 13:54:36;;;;;;;17.07;7.13;;;;;;;;;;5054223;28;20224;-59
2022/12/29 13:57:31;;;;;;;48.83;25.13;;;;;;;;;;5083120;28;20325;-58
2022/12/29 14:00:19;;;;;;;48.67;24.40;;;;;;;;;;5096092;28;20211;-59
2022/12/29 14:02:50;;;;;;;47.83;28.80;;;;;;;;;;5094910;28;20261;-60
2022/12/29 14:05:21;;;;;;;46.30;26.57;;;;;;;;;;5095072;28;20229;-59
2022/12/29 14:07:49;;;;;;;41.47;25.53;;;;;;;;;;5096375;28;20279;-60
2022/12/29 14:10:29;;;;;;;32.73;21.77;;;;;;;;;;5096245;28;20230;-59
2022/12/29 14:13:16;;;;;;;28.80;18.43;;;;;;;;;;5095121;28;20280;-59
2022/12/29 14:15:49;;;;;;;33.43;19.67;;;;;;;;;;5095756;28;20233;-60
2022/12/29 14:18:19;;;;;;;32.20;19.53;;;;;;;;;;5094843;28;20242;-60
2022/12/29 14:20:51;;;;;;;37.13;22.40;;;;;;;;;;5094283;28;20226;-60
2022/12/29 14:23:46;;;;;;;25.97;13.47;;;;;;;;;;5096194;28;20273;-59
2022/12/29 14:26:31;;;;;;;39.50;22.00;;;;;;;;;;5094859;28;20222;-58
2022/12/29 14:29:23;;;;;;;67.20;37.43;;;;;;;;;;5095883;28;20232;-62
2022/12/29 14:31:52;;;;;;;63.40;34.87;;;;;;;;;;5075689;28;20251;-60
2022/12/29 14:34:21;;;;;;;59.03;34.57;;;;;;;;;;5074848;28;20215;-61
2022/12/29 14:36:53;;;;;;;63.23;40.23;;;;;;;;;;5094951;28;20222;-61
2022/12/29 14:39:29;;;;;;;62.20;30.23;;;;;;;;;;5095729;28;20269;-61
2022/12/29 14:42:01;;;;;;;31.02;17.92;;;;;;;;;;5094647;28;20238;-62
2022/12/29 14:44:28;;;;;;;32.17;16.53;;;;;;;;;;5095016;28;20241;-63
2022/12/29 14:46:58;;;;;;;35.97;22.07;;;;;;;;;;5093556;28;20256;-62
2022/12/29 14:49:31;;;;;;;35.73;22.67;;;;;;;;;;5094795;28;20222;-64
2022/12/29 14:52:12;;;;;;;23.43;15.17;;;;;;;;;;5074080;28;20669;-61
2022/12/29 14:54:49;;;;;;;30.17;17.30;;;;;;;;;;5075912;28;20604;-63
2022/12/29 14:57:30;;;;;;;24.33;14.97;;;;;;;;;;5094410;28;20234;-61
2022/12/29 15:00:05;;;;;;;23.77;12.73;;;;;;;;;;5094741;28;20597;-60
2022/12/29 15:02:38;;;;;;;20.80;11.97;;;;;;;;;;5093610;28;20237;-60
2022/12/29 15:05:10;;;;;;;22.77;14.10;;;;;;;;;;5094873;28;20257;-64
2022/12/29 15:07:37;;;;;;;21.37;12.57;;;;;;;;;;5094228;28;20288;-62
2022/12/29 15:10:08;;;;;;;27.97;15.33;;;;;;;;;;5094391;28;20257;-61
2022/12/29 15:12:43;;;;;;;22.40;13.10;;;;;;;;;;5094281;28;20231;-62
2022/12/29 15:15:29;;;;;;;49.80;25.53;;;;;;;;;;5095002;28;20218;-61
2022/12/29 15:17:57;;;;;;;33.83;17.73;;;;;;;;;;5093995;28;20223;-60
2022/12/29 15:20:29;;;;;;;25.23;14.38;;;;;;;;;;5094553;28;20222;-62
2022/12/29 15:23:17;;;;;;;22.17;13.30;;;;;;;;;;5094417;28;20252;-61
2022/12/29 15:26:03;;;;;;;18.63;11.23;;;;;;;;;;5093399;28;20222;-61
2022/12/29 15:28:51;;;;;;;21.80;11.37;;;;;;;;;;5093892;28;20226;-62
2022/12/29 15:31:20;;;;;;;22.43;12.00;;;;;;;;;;5093431;28;20295;-64
2022/12/29 15:34:09;;;;;;;17.20;10.93;;;;;;;;;;5094632;28;20234;-65
2022/12/29 15:36:38;;;;;;;20.55;10.48;;;;;;;;;;5093442;28;20218;-66
2022/12/29 15:39:28;;;;;;;27.53;13.70;;;;;;;;;;5094458;28;20691;-63